sensor_id;sensor_type;location;lat;lon;timestamp;temperature;humidity
21891;DHT22;11110;52.386;16.940;2024-02-21T00:00:59;20.90;47.30
21891;DHT22;11110;52.386;16.940;2024-02-21T00:03:47;20.90;47.30
21891;DHT22;11110;52.386;16.940;2024-02-21T00:06:15;20.90;47.30
21891;DHT22;11110;52.386;16.940;2024-02-21T00:08:44;20.90;47.30
21891;DHT22;11110;52.386;16.940;2024-02-21T00:11:12;20.90;47.30
21891;DHT22;11110;52.386;16.940;2024-02-21T00:13:41;20.90;47.30
21891;DHT22;11110;52.386;16.940;2024-02-21T00:16:10;20.90;47.30
21891;DHT22;11110;52.386;16.940;2024-02-21T00:18:39;20.90;47.30
21891;DHT22;11110;52.386;16.940;2024-02-21T00:21:08;20.90;47.30
21891;DHT22;11110;52.386;16.940;2024-02-21T00:23:42;20.30;47.00
21891;DHT22;11110;52.386;16.940;2024-02-21T00:26:10;20.90;47.40
21891;DHT22;11110;52.386;16.940;2024-02-21T00:28:39;20.80;47.40
21891;DHT22;11110;52.386;16.940;2024-02-21T00:31:07;20.80;47.40
21891;DHT22;11110;52.386;16.940;2024-02-21T00:33:36;20.80;47.40
21891;DHT22;11110;52.386;16.940;2024-02-21T00:36:05;20.80;47.50
21891;DHT22;11110;52.386;16.940;2024-02-21T00:38:35;20.90;47.50
21891;DHT22;11110;52.386;16.940;2024-02-21T00:41:03;20.90;47.50
21891;DHT22;11110;52.386;16.940;2024-02-21T00:43:32;20.80;47.40
21891;DHT22;11110;52.386;16.940;2024-02-21T00:46:00;20.90;47.40
21891;DHT22;11110;52.386;16.940;2024-02-21T00:48:29;20.90;47.40
21891;DHT22;11110;52.386;16.940;2024-02-21T00:50:57;20.90;47.30
21891;DHT22;11110;52.386;16.940;2024-02-21T00:53:26;20.90;47.40
21891;DHT22;11110;52.386;16.940;2024-02-21T00:55:56;20.90;47.30
21891;DHT22;11110;52.386;16.940;2024-02-21T00:58:24;20.90;48.00
21891;DHT22;11110;52.386;16.940;2024-02-21T01:00:53;20.90;47.40
21891;DHT22;11110;52.386;16.940;2024-02-21T01:03:22;20.90;47.50
21891;DHT22;11110;52.386;16.940;2024-02-21T01:05:50;20.90;47.50
21891;DHT22;11110;52.386;16.940;2024-02-21T01:08:19;20.90;47.40
21891;DHT22;11110;52.386;16.940;2024-02-21T01:10:47;21.00;47.40
21891;DHT22;11110;52.386;16.940;2024-02-21T01:13:17;21.00;47.50
21891;DHT22;11110;52.386;16.940;2024-02-21T01:15:46;21.00;47.40
21891;DHT22;11110;52.386;16.940;2024-02-21T01:18:14;21.00;47.40
21891;DHT22;11110;52.386;16.940;2024-02-21T01:20:43;21.00;47.40
21891;DHT22;11110;52.386;16.940;2024-02-21T01:23:11;21.00;47.40
21891;DHT22;11110;52.386;16.940;2024-02-21T01:25:40;21.10;47.40
21891;DHT22;11110;52.386;16.940;2024-02-21T01:28:08;21.10;47.30
21891;DHT22;11110;52.386;16.940;2024-02-21T01:30:38;21.10;47.30
21891;DHT22;11110;52.386;16.940;2024-02-21T01:33:07;21.10;47.20
21891;DHT22;11110;52.386;16.940;2024-02-21T01:35:36;21.10;47.20
21891;DHT22;11110;52.386;16.940;2024-02-21T01:38:04;21.10;47.20
21891;DHT22;11110;52.386;16.940;2024-02-21T01:40:33;21.10;47.20
21891;DHT22;11110;52.386;16.940;2024-02-21T01:43:01;21.10;47.20
21891;DHT22;11110;52.386;16.940;2024-02-21T01:45:30;21.10;47.80
21891;DHT22;11110;52.386;16.940;2024-02-21T01:48:00;21.10;47.20
21891;DHT22;11110;52.386;16.940;2024-02-21T01:50:29;21.10;47.10
21891;DHT22;11110;52.386;16.940;2024-02-21T01:52:57;21.10;47.20
21891;DHT22;11110;52.386;16.940;2024-02-21T01:55:26;21.10;47.20
21891;DHT22;11110;52.386;16.940;2024-02-21T01:57:56;22.00;47.70
21891;DHT22;11110;52.386;16.940;2024-02-21T02:00:25;21.10;47.30
21891;DHT22;11110;52.386;16.940;2024-02-21T02:02:54;21.10;47.30
21891;DHT22;11110;52.386;16.940;2024-02-21T02:05:24;21.10;47.30
21891;DHT22;11110;52.386;16.940;2024-02-21T02:07:54;21.10;47.30
21891;DHT22;11110;52.386;16.940;2024-02-21T02:10:22;21.10;47.30
21891;DHT22;11110;52.386;16.940;2024-02-21T02:12:51;21.10;47.40
21891;DHT22;11110;52.386;16.940;2024-02-21T02:15:19;21.10;47.40
21891;DHT22;11110;52.386;16.940;2024-02-21T02:17:48;21.10;47.50
21891;DHT22;11110;52.386;16.940;2024-02-21T02:20:16;21.10;47.50
21891;DHT22;11110;52.386;16.940;2024-02-21T02:22:47;21.00;47.50
21891;DHT22;11110;52.386;16.940;2024-02-21T02:25:19;21.10;47.60
21891;DHT22;11110;52.386;16.940;2024-02-21T02:27:47;21.00;47.60
21891;DHT22;11110;52.386;16.940;2024-02-21T02:30:16;21.00;47.60
21891;DHT22;11110;52.386;16.940;2024-02-21T02:32:45;21.00;47.70
21891;DHT22;11110;52.386;16.940;2024-02-21T02:35:14;21.00;47.80
21891;DHT22;11110;52.386;16.940;2024-02-21T02:37:48;21.00;47.80
21891;DHT22;11110;52.386;16.940;2024-02-21T02:40:18;21.00;47.80
21891;DHT22;11110;52.386;16.940;2024-02-21T02:42:46;21.00;47.90
21891;DHT22;11110;52.386;16.940;2024-02-21T02:45:16;21.00;48.50
21891;DHT22;11110;52.386;16.940;2024-02-21T02:47:45;21.00;47.90
21891;DHT22;11110;52.386;16.940;2024-02-21T02:50:14;21.00;48.00
21891;DHT22;11110;52.386;16.940;2024-02-21T02:52:43;21.00;48.60
21891;DHT22;11110;52.386;16.940;2024-02-21T02:55:11;21.00;47.90
21891;DHT22;11110;52.386;16.940;2024-02-21T02:57:41;21.00;47.90
21891;DHT22;11110;52.386;16.940;2024-02-21T03:00:11;21.10;47.90
21891;DHT22;11110;52.386;16.940;2024-02-21T03:02:41;21.10;47.90
21891;DHT22;11110;52.386;16.940;2024-02-21T03:05:14;21.00;47.90
21891;DHT22;11110;52.386;16.940;2024-02-21T03:07:43;21.10;47.90
21891;DHT22;11110;52.386;16.940;2024-02-21T03:10:13;21.10;47.90
21891;DHT22;11110;52.386;16.940;2024-02-21T03:12:45;21.10;47.90
21891;DHT22;11110;52.386;16.940;2024-02-21T03:15:14;21.10;47.90
21891;DHT22;11110;52.386;16.940;2024-02-21T03:17:42;21.10;47.90
21891;DHT22;11110;52.386;16.940;2024-02-21T03:20:12;22.00;48.60
21891;DHT22;11110;52.386;16.940;2024-02-21T03:22:41;21.10;47.80
21891;DHT22;11110;52.386;16.940;2024-02-21T03:25:09;21.10;47.80
21891;DHT22;11110;52.386;16.940;2024-02-21T03:27:39;21.10;47.80
21891;DHT22;11110;52.386;16.940;2024-02-21T03:30:10;21.10;47.80
21891;DHT22;11110;52.386;16.940;2024-02-21T03:32:39;21.10;47.80
21891;DHT22;11110;52.386;16.940;2024-02-21T03:35:08;21.10;47.80
21891;DHT22;11110;52.386;16.940;2024-02-21T03:37:36;21.10;47.70
21891;DHT22;11110;52.386;16.940;2024-02-21T03:40:08;21.20;47.80
21891;DHT22;11110;52.386;16.940;2024-02-21T03:42:37;21.20;47.70
21891;DHT22;11110;52.386;16.940;2024-02-21T03:45:07;21.20;48.40
21891;DHT22;11110;52.386;16.940;2024-02-21T03:47:36;21.20;47.70
21891;DHT22;11110;52.386;16.940;2024-02-21T03:50:06;21.20;47.70
21891;DHT22;11110;52.386;16.940;2024-02-21T03:52:35;21.20;47.70
21891;DHT22;11110;52.386;16.940;2024-02-21T03:55:04;21.20;47.70
21891;DHT22;11110;52.386;16.940;2024-02-21T03:57:34;21.20;47.70
21891;DHT22;11110;52.386;16.940;2024-02-21T04:00:04;21.20;47.70
21891;DHT22;11110;52.386;16.940;2024-02-21T04:02:39;20.80;47.50
21891;DHT22;11110;52.386;16.940;2024-02-21T04:05:08;21.30;47.60
21891;DHT22;11110;52.386;16.940;2024-02-21T04:07:38;21.20;47.50
21891;DHT22;11110;52.386;16.940;2024-02-21T04:10:08;21.30;47.50
21891;DHT22;11110;52.386;16.940;2024-02-21T04:12:37;21.30;47.50
21891;DHT22;11110;52.386;16.940;2024-02-21T04:15:06;21.30;47.40
21891;DHT22;11110;52.386;16.940;2024-02-21T04:17:34;21.40;47.40
21891;DHT22;11110;52.386;16.940;2024-02-21T04:20:05;21.30;47.30
21891;DHT22;11110;52.386;16.940;2024-02-21T04:22:36;21.40;47.40
21891;DHT22;11110;52.386;16.940;2024-02-21T04:25:05;21.30;47.30
21891;DHT22;11110;52.386;16.940;2024-02-21T04:27:34;21.40;47.30
21891;DHT22;11110;52.386;16.940;2024-02-21T04:30:03;21.40;47.20
21891;DHT22;11110;52.386;16.940;2024-02-21T04:32:31;21.40;47.20
21891;DHT22;11110;52.386;16.940;2024-02-21T04:35:00;21.40;47.20
21891;DHT22;11110;52.386;16.940;2024-02-21T04:37:30;21.40;47.20
21891;DHT22;11110;52.386;16.940;2024-02-21T04:39:59;21.40;47.20
21891;DHT22;11110;52.386;16.940;2024-02-21T04:42:27;21.40;47.80
21891;DHT22;11110;52.386;16.940;2024-02-21T04:44:56;21.30;47.20
21891;DHT22;11110;52.386;16.940;2024-02-21T04:47:24;21.40;47.20
21891;DHT22;11110;52.386;16.940;2024-02-21T04:49:54;21.40;47.20
21891;DHT22;11110;52.386;16.940;2024-02-21T04:52:22;21.30;47.20
21891;DHT22;11110;52.386;16.940;2024-02-21T04:54:52;21.30;47.20
21891;DHT22;11110;52.386;16.940;2024-02-21T04:57:21;21.30;47.20
21891;DHT22;11110;52.386;16.940;2024-02-21T04:59:49;21.20;47.30
21891;DHT22;11110;52.386;16.940;2024-02-21T05:02:18;21.20;47.40
21891;DHT22;11110;52.386;16.940;2024-02-21T05:04:50;21.20;47.50
21891;DHT22;11110;52.386;16.940;2024-02-21T05:07:18;21.20;47.40
21891;DHT22;11110;52.386;16.940;2024-02-21T05:09:47;21.20;47.50
21891;DHT22;11110;52.386;16.940;2024-02-21T05:12:17;21.20;47.60
21891;DHT22;11110;52.386;16.940;2024-02-21T05:14:45;21.20;47.60
21891;DHT22;11110;52.386;16.940;2024-02-21T05:17:15;21.20;48.30
21891;DHT22;11110;52.386;16.940;2024-02-21T05:19:44;21.20;47.60
21891;DHT22;11110;52.386;16.940;2024-02-21T05:22:12;21.20;47.50
21891;DHT22;11110;52.386;16.940;2024-02-21T05:24:41;21.20;47.60
21891;DHT22;11110;52.386;16.940;2024-02-21T05:27:09;21.20;47.50
21891;DHT22;11110;52.386;16.940;2024-02-21T05:29:39;21.20;47.60
21891;DHT22;11110;52.386;16.940;2024-02-21T05:32:08;21.20;47.60
21891;DHT22;11110;52.386;16.940;2024-02-21T05:34:36;21.20;47.50
21891;DHT22;11110;52.386;16.940;2024-02-21T05:37:05;21.20;47.60
21891;DHT22;11110;52.386;16.940;2024-02-21T05:39:33;21.30;47.60
21891;DHT22;11110;52.386;16.940;2024-02-21T05:42:02;21.30;47.60
21891;DHT22;11110;52.386;16.940;2024-02-21T05:44:31;21.30;47.60
21891;DHT22;11110;52.386;16.940;2024-02-21T05:47:00;21.30;47.60
21891;DHT22;11110;52.386;16.940;2024-02-21T05:49:29;21.30;48.30
21891;DHT22;11110;52.386;16.940;2024-02-21T05:51:58;21.30;47.60
21891;DHT22;11110;52.386;16.940;2024-02-21T05:54:26;21.30;47.60
21891;DHT22;11110;52.386;16.940;2024-02-21T05:56:55;21.30;47.60
21891;DHT22;11110;52.386;16.940;2024-02-21T05:59:24;21.40;47.60
21891;DHT22;11110;52.386;16.940;2024-02-21T06:01:56;21.40;47.50
21891;DHT22;11110;52.386;16.940;2024-02-21T06:04:27;21.40;47.40
21891;DHT22;11110;52.386;16.940;2024-02-21T06:06:55;21.40;47.40
21891;DHT22;11110;52.386;16.940;2024-02-21T06:09:24;21.40;47.40
21891;DHT22;11110;52.386;16.940;2024-02-21T06:11:52;21.40;48.10
21891;DHT22;11110;52.386;16.940;2024-02-21T06:14:21;21.40;47.50
21891;DHT22;11110;52.386;16.940;2024-02-21T06:16:50;21.40;47.50
21891;DHT22;11110;52.386;16.940;2024-02-21T06:19:18;21.40;47.50
21891;DHT22;11110;52.386;16.940;2024-02-21T06:21:48;21.40;47.50
21891;DHT22;11110;52.386;16.940;2024-02-21T06:24:17;21.40;47.50
21891;DHT22;11110;52.386;16.940;2024-02-21T06:26:45;21.40;47.50
21891;DHT22;11110;52.386;16.940;2024-02-21T06:29:14;21.40;47.40
21891;DHT22;11110;52.386;16.940;2024-02-21T06:31:42;21.40;47.40
21891;DHT22;11110;52.386;16.940;2024-02-21T06:34:11;21.40;47.40
21891;DHT22;11110;52.386;16.940;2024-02-21T06:36:40;21.40;47.30
21891;DHT22;11110;52.386;16.940;2024-02-21T06:39:10;21.40;47.30
21891;DHT22;11110;52.386;16.940;2024-02-21T06:41:38;21.50;47.30
21891;DHT22;11110;52.386;16.940;2024-02-21T06:44:07;21.40;47.30
21891;DHT22;11110;52.386;16.940;2024-02-21T06:46:36;21.40;47.30
21891;DHT22;11110;52.386;16.940;2024-02-21T06:49:05;21.40;47.30
21891;DHT22;11110;52.386;16.940;2024-02-21T06:51:33;21.50;47.40
21891;DHT22;11110;52.386;16.940;2024-02-21T06:54:02;21.50;47.30
21891;DHT22;11110;52.386;16.940;2024-02-21T06:56:31;21.50;47.20
21891;DHT22;11110;52.386;16.940;2024-02-21T06:59:00;21.40;47.30
21891;DHT22;11110;52.386;16.940;2024-02-21T07:01:30;21.40;47.30
21891;DHT22;11110;52.386;16.940;2024-02-21T07:03:59;21.40;47.40
21891;DHT22;11110;52.386;16.940;2024-02-21T07:06:27;21.40;47.30
21891;DHT22;11110;52.386;16.940;2024-02-21T07:08:59;21.40;47.30
21891;DHT22;11110;52.386;16.940;2024-02-21T07:11:27;21.40;47.30
21891;DHT22;11110;52.386;16.940;2024-02-21T07:13:57;21.40;47.40
21891;DHT22;11110;52.386;16.940;2024-02-21T07:16:26;21.40;47.40
21891;DHT22;11110;52.386;16.940;2024-02-21T07:18:56;21.40;47.40
21891;DHT22;11110;52.386;16.940;2024-02-21T07:21:25;21.50;47.40
21891;DHT22;11110;52.386;16.940;2024-02-21T07:23:54;21.50;47.30
21891;DHT22;11110;52.386;16.940;2024-02-21T07:26:22;21.50;47.30
21891;DHT22;11110;52.386;16.940;2024-02-21T07:28:51;21.50;47.30
21891;DHT22;11110;52.386;16.940;2024-02-21T07:31:20;21.60;47.30
21891;DHT22;11110;52.386;16.940;2024-02-21T07:33:49;21.60;47.30
21891;DHT22;11110;52.386;16.940;2024-02-21T07:36:30;21.60;47.30
21891;DHT22;11110;52.386;16.940;2024-02-21T07:38:58;21.60;47.20
21891;DHT22;11110;52.386;16.940;2024-02-21T07:41:27;21.60;47.20
21891;DHT22;11110;52.386;16.940;2024-02-21T07:43:58;21.60;47.20
21891;DHT22;11110;52.386;16.940;2024-02-21T07:46:28;21.70;47.20
21891;DHT22;11110;52.386;16.940;2024-02-21T07:48:56;21.60;47.10
21891;DHT22;11110;52.386;16.940;2024-02-21T07:51:27;21.60;47.10
21891;DHT22;11110;52.386;16.940;2024-02-21T07:53:56;21.70;47.10
21891;DHT22;11110;52.386;16.940;2024-02-21T07:56:27;21.70;47.00
21891;DHT22;11110;52.386;16.940;2024-02-21T07:58:56;21.60;47.00
21891;DHT22;11110;52.386;16.940;2024-02-21T08:01:24;21.60;47.10
21891;DHT22;11110;52.386;16.940;2024-02-21T08:03:55;21.70;47.20
21891;DHT22;11110;52.386;16.940;2024-02-21T08:06:23;21.70;47.10
21891;DHT22;11110;52.386;16.940;2024-02-21T08:08:52;21.70;47.20
21891;DHT22;11110;52.386;16.940;2024-02-21T08:11:20;21.70;47.20
21891;DHT22;11110;52.386;16.940;2024-02-21T08:13:48;21.70;47.10
21891;DHT22;11110;52.386;16.940;2024-02-21T08:16:17;21.70;47.00
21891;DHT22;11110;52.386;16.940;2024-02-21T08:18:45;21.80;47.00
21891;DHT22;11110;52.386;16.940;2024-02-21T08:21:15;21.90;47.00
21891;DHT22;11110;52.386;16.940;2024-02-21T08:23:44;21.80;46.90
21891;DHT22;11110;52.386;16.940;2024-02-21T08:26:13;21.80;46.80
21891;DHT22;11110;52.386;16.940;2024-02-21T08:28:41;21.80;46.80
21891;DHT22;11110;52.386;16.940;2024-02-21T08:31:10;21.80;47.10
21891;DHT22;11110;52.386;16.940;2024-02-21T08:33:38;21.80;47.00
21891;DHT22;11110;52.386;16.940;2024-02-21T08:36:07;21.70;47.00
21891;DHT22;11110;52.386;16.940;2024-02-21T08:38:37;21.70;47.10
21891;DHT22;11110;52.386;16.940;2024-02-21T08:41:05;21.70;47.20
21891;DHT22;11110;52.386;16.940;2024-02-21T08:43:34;21.70;47.20
21891;DHT22;11110;52.386;16.940;2024-02-21T08:46:03;21.70;47.10
21891;DHT22;11110;52.386;16.940;2024-02-21T08:48:32;21.70;47.00
21891;DHT22;11110;52.386;16.940;2024-02-21T08:51:00;21.70;47.00
21891;DHT22;11110;52.386;16.940;2024-02-21T08:53:29;21.70;47.00
21891;DHT22;11110;52.386;16.940;2024-02-21T08:55:58;21.80;47.10
21891;DHT22;11110;52.386;16.940;2024-02-21T08:58:27;21.70;47.10
21891;DHT22;11110;52.386;16.940;2024-02-21T09:00:56;21.70;47.20
21891;DHT22;11110;52.386;16.940;2024-02-21T09:03:24;21.80;47.20
21891;DHT22;11110;52.386;16.940;2024-02-21T09:05:53;21.80;47.10
21891;DHT22;11110;52.386;16.940;2024-02-21T09:08:22;21.70;47.10
21891;DHT22;11110;52.386;16.940;2024-02-21T09:10:51;21.70;47.20
21891;DHT22;11110;52.386;16.940;2024-02-21T09:13:21;21.70;47.10
21891;DHT22;11110;52.386;16.940;2024-02-21T09:15:50;21.70;47.20
21891;DHT22;11110;52.386;16.940;2024-02-21T09:18:19;21.70;47.20
21891;DHT22;11110;52.386;16.940;2024-02-21T09:20:47;21.70;47.30
21891;DHT22;11110;52.386;16.940;2024-02-21T09:23:16;21.80;47.30
21891;DHT22;11110;52.386;16.940;2024-02-21T09:25:46;21.80;47.20
21891;DHT22;11110;52.386;16.940;2024-02-21T09:28:15;21.80;47.20
21891;DHT22;11110;52.386;16.940;2024-02-21T09:30:44;21.80;47.20
21891;DHT22;11110;52.386;16.940;2024-02-21T09:33:13;21.90;47.20
21891;DHT22;11110;52.386;16.940;2024-02-21T09:35:56;21.90;47.20
21891;DHT22;11110;52.386;16.940;2024-02-21T09:38:25;21.90;47.10
21891;DHT22;11110;52.386;16.940;2024-02-21T09:40:58;21.90;47.00
21891;DHT22;11110;52.386;16.940;2024-02-21T09:43:29;22.00;46.90
21891;DHT22;11110;52.386;16.940;2024-02-21T09:45:59;22.00;46.90
21891;DHT22;11110;52.386;16.940;2024-02-21T09:48:42;22.00;46.80
21891;DHT22;11110;52.386;16.940;2024-02-21T09:51:14;22.00;46.80
21891;DHT22;11110;52.386;16.940;2024-02-21T09:53:44;21.90;46.80
21891;DHT22;11110;52.386;16.940;2024-02-21T09:56:28;22.00;46.90
21891;DHT22;11110;52.386;16.940;2024-02-21T09:58:57;21.90;46.90
21891;DHT22;11110;52.386;16.940;2024-02-21T10:01:28;21.90;47.00
21891;DHT22;11110;52.386;16.940;2024-02-21T10:04:02;21.90;47.00
21891;DHT22;11110;52.386;16.940;2024-02-21T10:06:32;22.00;46.90
21891;DHT22;11110;52.386;16.940;2024-02-21T10:09:02;22.00;47.00
21891;DHT22;11110;52.386;16.940;2024-02-21T10:11:30;21.90;46.90
21891;DHT22;11110;52.386;16.940;2024-02-21T10:14:05;21.90;46.90
21891;DHT22;11110;52.386;16.940;2024-02-21T10:16:35;22.00;47.00
21891;DHT22;11110;52.386;16.940;2024-02-21T10:19:05;22.00;46.90
21891;DHT22;11110;52.386;16.940;2024-02-21T10:21:33;21.90;47.00
21891;DHT22;11110;52.386;16.940;2024-02-21T10:24:02;22.00;46.90
21891;DHT22;11110;52.386;16.940;2024-02-21T10:26:30;22.00;46.80
21891;DHT22;11110;52.386;16.940;2024-02-21T10:29:01;22.00;46.80
21891;DHT22;11110;52.386;16.940;2024-02-21T10:31:30;22.00;46.90
21891;DHT22;11110;52.386;16.940;2024-02-21T10:34:00;22.00;46.90
21891;DHT22;11110;52.386;16.940;2024-02-21T10:36:31;22.10;46.80
21891;DHT22;11110;52.386;16.940;2024-02-21T10:38:59;22.10;46.80
21891;DHT22;11110;52.386;16.940;2024-02-21T10:41:28;22.10;46.70
21891;DHT22;11110;52.386;16.940;2024-02-21T10:44:01;22.20;46.80
21891;DHT22;11110;52.386;16.940;2024-02-21T10:46:35;22.20;46.70
21891;DHT22;11110;52.386;16.940;2024-02-21T10:49:10;22.20;46.60
21891;DHT22;11110;52.386;16.940;2024-02-21T10:51:43;22.30;46.60
21891;DHT22;11110;52.386;16.940;2024-02-21T10:54:22;22.30;46.40
21891;DHT22;11110;52.386;16.940;2024-02-21T10:56:54;22.40;46.40
21891;DHT22;11110;52.386;16.940;2024-02-21T10:59:25;22.40;46.40
21891;DHT22;11110;52.386;16.940;2024-02-21T11:01:56;22.50;46.20
21891;DHT22;11110;52.386;16.940;2024-02-21T11:04:28;22.60;46.10
21891;DHT22;11110;52.386;16.940;2024-02-21T11:06:58;22.50;46.70
21891;DHT22;11110;52.386;16.940;2024-02-21T11:09:32;22.50;46.10
21891;DHT22;11110;52.386;16.940;2024-02-21T11:12:03;22.50;46.10
21891;DHT22;11110;52.386;16.940;2024-02-21T11:14:33;22.50;46.00
21891;DHT22;11110;52.386;16.940;2024-02-21T11:17:03;22.50;46.10
21891;DHT22;11110;52.386;16.940;2024-02-21T11:19:44;22.50;46.00
21891;DHT22;11110;52.386;16.940;2024-02-21T11:22:16;22.50;46.00
21891;DHT22;11110;52.386;16.940;2024-02-21T11:24:45;22.50;46.00
21891;DHT22;11110;52.386;16.940;2024-02-21T11:27:14;22.50;45.90
21891;DHT22;11110;52.386;16.940;2024-02-21T11:29:44;22.50;45.90
21891;DHT22;11110;52.386;16.940;2024-02-21T11:32:14;22.50;46.00
21891;DHT22;11110;52.386;16.940;2024-02-21T11:34:57;22.50;46.00
21891;DHT22;11110;52.386;16.940;2024-02-21T11:37:30;22.50;45.90
21891;DHT22;11110;52.386;16.940;2024-02-21T11:40:01;22.50;46.10
21891;DHT22;11110;52.386;16.940;2024-02-21T11:42:30;22.50;46.00
21891;DHT22;11110;52.386;16.940;2024-02-21T11:45:00;22.50;45.80
21891;DHT22;11110;52.386;16.940;2024-02-21T11:47:29;22.60;45.70
21891;DHT22;11110;52.386;16.940;2024-02-21T11:49:59;22.50;45.70
21891;DHT22;11110;52.386;16.940;2024-02-21T11:52:28;22.50;45.80
21891;DHT22;11110;52.386;16.940;2024-02-21T11:54:57;22.60;45.80
21891;DHT22;11110;52.386;16.940;2024-02-21T11:57:32;22.50;45.90
21891;DHT22;11110;52.386;16.940;2024-02-21T12:00:12;22.50;46.00
21891;DHT22;11110;52.386;16.940;2024-02-21T12:02:41;22.60;46.00
21891;DHT22;11110;52.386;16.940;2024-02-21T12:05:12;22.60;46.00
21891;DHT22;11110;52.386;16.940;2024-02-21T12:07:40;22.60;45.80
21891;DHT22;11110;52.386;16.940;2024-02-21T12:10:10;22.60;45.90
21891;DHT22;11110;52.386;16.940;2024-02-21T12:12:39;22.60;46.00
21891;DHT22;11110;52.386;16.940;2024-02-21T12:15:08;22.60;45.90
21891;DHT22;11110;52.386;16.940;2024-02-21T12:17:37;22.60;46.00
21891;DHT22;11110;52.386;16.940;2024-02-21T12:20:08;22.70;45.70
21891;DHT22;11110;52.386;16.940;2024-02-21T12:22:41;22.70;45.50
21891;DHT22;11110;52.386;16.940;2024-02-21T12:25:17;22.70;45.60
21891;DHT22;11110;52.386;16.940;2024-02-21T12:27:46;22.00;45.20
21891;DHT22;11110;52.386;16.940;2024-02-21T12:30:16;22.60;45.60
21891;DHT22;11110;52.386;16.940;2024-02-21T12:32:44;22.70;46.10
21891;DHT22;11110;52.386;16.940;2024-02-21T12:35:14;22.60;45.50
21891;DHT22;11110;52.386;16.940;2024-02-21T12:37:43;22.60;45.50
21891;DHT22;11110;52.386;16.940;2024-02-21T12:40:12;22.60;45.60
21891;DHT22;11110;52.386;16.940;2024-02-21T12:42:42;22.60;45.50
21891;DHT22;11110;52.386;16.940;2024-02-21T12:45:11;22.50;45.40
21891;DHT22;11110;52.386;16.940;2024-02-21T12:47:40;22.50;45.70
21891;DHT22;11110;52.386;16.940;2024-02-21T12:50:09;22.50;45.80
21891;DHT22;11110;52.386;16.940;2024-02-21T12:52:37;22.50;45.70
21891;DHT22;11110;52.386;16.940;2024-02-21T12:55:08;22.60;45.60
21891;DHT22;11110;52.386;16.940;2024-02-21T12:57:38;22.60;45.60
21891;DHT22;11110;52.386;16.940;2024-02-21T13:00:08;22.60;45.70
21891;DHT22;11110;52.386;16.940;2024-02-21T13:02:38;22.70;45.70
21891;DHT22;11110;52.386;16.940;2024-02-21T13:05:07;22.60;45.70
21891;DHT22;11110;52.386;16.940;2024-02-21T13:07:35;22.70;45.70
21891;DHT22;11110;52.386;16.940;2024-02-21T13:10:05;22.70;45.70
21891;DHT22;11110;52.386;16.940;2024-02-21T13:12:35;22.80;45.70
21891;DHT22;11110;52.386;16.940;2024-02-21T13:15:04;22.80;45.50
21891;DHT22;11110;52.386;16.940;2024-02-21T13:17:33;22.80;45.40
21891;DHT22;11110;52.386;16.940;2024-02-21T13:20:02;22.80;45.50
21891;DHT22;11110;52.386;16.940;2024-02-21T13:22:31;22.80;45.50
21891;DHT22;11110;52.386;16.940;2024-02-21T13:25:00;22.80;45.60
21891;DHT22;11110;52.386;16.940;2024-02-21T13:27:28;22.80;45.60
21891;DHT22;11110;52.386;16.940;2024-02-21T13:29:58;22.80;45.60
21891;DHT22;11110;52.386;16.940;2024-02-21T13:32:27;22.80;45.60
21891;DHT22;11110;52.386;16.940;2024-02-21T13:34:56;22.80;45.60
21891;DHT22;11110;52.386;16.940;2024-02-21T13:37:27;22.80;45.60
21891;DHT22;11110;52.386;16.940;2024-02-21T13:39:56;22.80;45.40
21891;DHT22;11110;52.386;16.940;2024-02-21T13:42:24;22.80;45.40
21891;DHT22;11110;52.386;16.940;2024-02-21T13:44:55;22.80;45.50
21891;DHT22;11110;52.386;16.940;2024-02-21T13:47:24;22.80;45.40
21891;DHT22;11110;52.386;16.940;2024-02-21T13:49:53;22.90;45.50
21891;DHT22;11110;52.386;16.940;2024-02-21T13:52:22;22.90;45.60
21891;DHT22;11110;52.386;16.940;2024-02-21T13:54:53;22.80;45.50
21891;DHT22;11110;52.386;16.940;2024-02-21T13:57:22;22.80;45.50
21891;DHT22;11110;52.386;16.940;2024-02-21T13:59:50;22.80;45.50
21891;DHT22;11110;52.386;16.940;2024-02-21T14:02:19;22.80;45.60
21891;DHT22;11110;52.386;16.940;2024-02-21T14:04:49;22.80;45.60
21891;DHT22;11110;52.386;16.940;2024-02-21T14:07:18;22.80;45.70
21891;DHT22;11110;52.386;16.940;2024-02-21T14:09:46;22.80;45.50
21891;DHT22;11110;52.386;16.940;2024-02-21T14:12:15;22.80;45.50
21891;DHT22;11110;52.386;16.940;2024-02-21T14:14:44;22.90;45.50
21891;DHT22;11110;52.386;16.940;2024-02-21T14:17:13;22.90;45.50
21891;DHT22;11110;52.386;16.940;2024-02-21T14:19:41;22.90;45.30
21891;DHT22;11110;52.386;16.940;2024-02-21T14:22:11;23.00;45.20
21891;DHT22;11110;52.386;16.940;2024-02-21T14:24:40;22.90;45.20
21891;DHT22;11110;52.386;16.940;2024-02-21T14:27:09;22.90;45.10
21891;DHT22;11110;52.386;16.940;2024-02-21T14:29:37;23.00;45.10
21891;DHT22;11110;52.386;16.940;2024-02-21T14:32:06;22.90;45.10
21891;DHT22;11110;52.386;16.940;2024-02-21T14:34:38;22.90;45.10
21891;DHT22;11110;52.386;16.940;2024-02-21T14:37:06;22.90;45.00
21891;DHT22;11110;52.386;16.940;2024-02-21T14:39:39;23.00;44.90
21891;DHT22;11110;52.386;16.940;2024-02-21T14:42:07;23.00;45.00
21891;DHT22;11110;52.386;16.940;2024-02-21T14:44:37;22.90;45.00
21891;DHT22;11110;52.386;16.940;2024-02-21T14:47:06;23.00;45.00
21891;DHT22;11110;52.386;16.940;2024-02-21T14:49:34;23.00;44.90
21891;DHT22;11110;52.386;16.940;2024-02-21T14:52:03;22.90;44.90
21891;DHT22;11110;52.386;16.940;2024-02-21T14:54:32;22.90;45.00
21891;DHT22;11110;52.386;16.940;2024-02-21T14:57:02;22.90;45.30
21891;DHT22;11110;52.386;16.940;2024-02-21T14:59:31;23.00;45.20
21891;DHT22;11110;52.386;16.940;2024-02-21T15:02:01;23.00;45.00
21891;DHT22;11110;52.386;16.940;2024-02-21T15:04:30;23.00;45.00
21891;DHT22;11110;52.386;16.940;2024-02-21T15:06:59;23.00;45.00
21891;DHT22;11110;52.386;16.940;2024-02-21T15:09:28;23.10;45.00
21891;DHT22;11110;52.386;16.940;2024-02-21T15:11:57;23.10;44.90
21891;DHT22;11110;52.386;16.940;2024-02-21T15:14:27;23.20;44.90
21891;DHT22;11110;52.386;16.940;2024-02-21T15:16:55;23.10;44.80
21891;DHT22;11110;52.386;16.940;2024-02-21T15:19:24;23.10;44.90
21891;DHT22;11110;52.386;16.940;2024-02-21T15:21:53;23.10;44.90
21891;DHT22;11110;52.386;16.940;2024-02-21T15:24:21;23.10;44.80
21891;DHT22;11110;52.386;16.940;2024-02-21T15:26:50;23.10;45.40
21891;DHT22;11110;52.386;16.940;2024-02-21T15:29:19;23.20;45.10